sensor_id;sensor_type;location;lat;lon;timestamp;pressure;altitude;pressure_sealevel;temperature;humidity
36788;BME280;22738;45.560;9.434;2023-04-22T00:05:58;99742.50;;;13.31;100.00
36788;BME280;22738;45.560;9.434;2023-04-22T00:12:40;99747.69;;;13.31;100.00
36788;BME280;22738;45.560;9.434;2023-04-22T00:19:21;99753.81;;;13.19;100.00
36788;BME280;22738;45.560;9.434;2023-04-22T00:26:03;99758.06;;;13.09;100.00
36788;BME280;22738;45.560;9.434;2023-04-22T00:32:44;99756.59;;;13.05;100.00
36788;BME280;22738;45.560;9.434;2023-04-22T00:39:25;99760.22;;;12.91;100.00
36788;BME280;22738;45.560;9.434;2023-04-22T00:46:06;99763.69;;;12.68;100.00
36788;BME280;22738;45.560;9.434;2023-04-22T00:52:48;99765.91;;;12.61;100.00
36788;BME280;22738;45.560;9.434;2023-04-22T00:59:29;99768.97;;;12.55;100.00
36788;BME280;22738;45.560;9.434;2023-04-22T01:06:10;99758.78;;;12.52;100.00
36788;BME280;22738;45.560;9.434;2023-04-22T01:12:51;99760.47;;;12.53;100.00
36788;BME280;22738;45.560;9.434;2023-04-22T01:19:32;99752.66;;;12.53;100.00
36788;BME280;22738;45.560;9.434;2023-04-22T01:26:13;99752.63;;;12.42;100.00
36788;BME280;22738;45.560;9.434;2023-04-22T01:32:54;99755.59;;;12.25;100.00
36788;BME280;22738;45.560;9.434;2023-04-22T01:39:36;99748.00;;;11.98;100.00
36788;BME280;22738;45.560;9.434;2023-04-22T01:46:17;99756.06;;;12.06;100.00
36788;BME280;22738;45.560;9.434;2023-04-22T01:52:59;99749.03;;;11.96;100.00
36788;BME280;22738;45.560;9.434;2023-04-22T01:59:40;99746.38;;;11.85;100.00
36788;BME280;22738;45.560;9.434;2023-04-22T02:06:21;99751.38;;;11.88;100.00
36788;BME280;22738;45.560;9.434;2023-04-22T02:13:02;99762.16;;;11.94;100.00
36788;BME280;22738;45.560;9.434;2023-04-22T02:19:43;99764.63;;;11.96;100.00
36788;BME280;22738;45.560;9.434;2023-04-22T02:26:24;99760.81;;;11.89;100.00
36788;BME280;22738;45.560;9.434;2023-04-22T02:33:06;99774.03;;;11.73;100.00
36788;BME280;22738;45.560;9.434;2023-04-22T02:39:47;99765.63;;;11.70;100.00
36788;BME280;22738;45.560;9.434;2023-04-22T02:46:29;99766.72;;;11.66;100.00
36788;BME280;22738;45.560;9.434;2023-04-22T02:53:10;99765.16;;;11.63;100.00
36788;BME280;22738;45.560;9.434;2023-04-22T02:59:51;99778.78;;;11.67;100.00
36788;BME280;22738;45.560;9.434;2023-04-22T03:06:34;99775.16;;;11.57;100.00
36788;BME280;22738;45.560;9.434;2023-04-22T03:13:15;99766.25;;;11.35;100.00
36788;BME280;22738;45.560;9.434;2023-04-22T03:19:57;99765.41;;;11.22;100.00
36788;BME280;22738;45.560;9.434;2023-04-22T03:26:40;99763.22;;;11.16;100.00
36788;BME280;22738;45.560;9.434;2023-04-22T03:33:21;99770.69;;;10.96;100.00
36788;BME280;22738;45.560;9.434;2023-04-22T03:40:09;99765.19;;;10.88;100.00
36788;BME280;22738;45.560;9.434;2023-04-22T03:46:52;99770.03;;;10.80;100.00
36788;BME280;22738;45.560;9.434;2023-04-22T03:53:37;99759.66;;;10.67;100.00
36788;BME280;22738;45.560;9.434;2023-04-22T04:00:21;99755.50;;;10.77;100.00
36788;BME280;22738;45.560;9.434;2023-04-22T04:07:13;99749.94;;;10.83;100.00
36788;BME280;22738;45.560;9.434;2023-04-22T04:13:54;99758.63;;;10.82;100.00
36788;BME280;22738;45.560;9.434;2023-04-22T04:20:40;99755.00;;;10.72;100.00
36788;BME280;22738;45.560;9.434;2023-04-22T04:27:22;99755.72;;;10.74;100.00
36788;BME280;22738;45.560;9.434;2023-04-22T04:34:06;99753.66;;;10.92;100.00
36788;BME280;22738;45.560;9.434;2023-04-22T04:40:50;99758.94;;;10.77;100.00
36788;BME280;22738;45.560;9.434;2023-04-22T04:47:36;99762.16;;;10.81;100.00
36788;BME280;22738;45.560;9.434;2023-04-22T04:54:27;99765.25;;;10.86;100.00
36788;BME280;22738;45.560;9.434;2023-04-22T05:01:09;99765.28;;;11.11;100.00
36788;BME280;22738;45.560;9.434;2023-04-22T05:07:50;99774.78;;;11.37;100.00
36788;BME280;22738;45.560;9.434;2023-04-22T05:14:34;99785.03;;;11.64;100.00
36788;BME280;22738;45.560;9.434;2023-04-22T05:21:15;99794.78;;;11.86;100.00
36788;BME280;22738;45.560;9.434;2023-04-22T05:27:59;99798.22;;;11.74;100.00
36788;BME280;22738;45.560;9.434;2023-04-22T05:34:45;99798.28;;;11.97;100.00
36788;BME280;22738;45.560;9.434;2023-04-22T05:41:26;99807.38;;;12.15;100.00
36788;BME280;22738;45.560;9.434;2023-04-22T05:48:10;99795.19;;;12.52;100.00
36788;BME280;22738;45.560;9.434;2023-04-22T05:54:58;99807.56;;;12.72;100.00
36788;BME280;22738;45.560;9.434;2023-04-22T06:01:40;99799.28;;;13.26;100.00
36788;BME280;22738;45.560;9.434;2023-04-22T06:08:22;99796.34;;;13.64;100.00
36788;BME280;22738;45.560;9.434;2023-04-22T06:15:05;99790.69;;;16.39;100.00
36788;BME280;22738;45.560;9.434;2023-04-22T06:21:46;99805.53;;;19.92;100.00
36788;BME280;22738;45.560;9.434;2023-04-22T06:28:27;99804.88;;;18.96;100.00
36788;BME280;22738;45.560;9.434;2023-04-22T06:35:11;99803.31;;;20.14;100.00
36788;BME280;22738;45.560;9.434;2023-04-22T06:41:53;99806.81;;;20.96;100.00
36788;BME280;22738;45.560;9.434;2023-04-22T06:48:54;99808.03;;;21.73;100.00
36788;BME280;22738;45.560;9.434;2023-04-22T06:55:55;99799.03;;;19.71;100.00
36788;BME280;22738;45.560;9.434;2023-04-22T07:02:36;99805.06;;;20.39;100.00
36788;BME280;22738;45.560;9.434;2023-04-22T07:09:17;99815.69;;;20.71;100.00
36788;BME280;22738;45.560;9.434;2023-04-22T07:15:59;99824.91;;;20.67;100.00
36788;BME280;22738;45.560;9.434;2023-04-22T07:22:40;99832.91;;;21.94;100.00
36788;BME280;22738;45.560;9.434;2023-04-22T07:29:21;99831.63;;;23.28;95.15
36788;BME280;22738;45.560;9.434;2023-04-22T07:36:04;99823.38;;;24.04;89.03
36788;BME280;22738;45.560;9.434;2023-04-22T07:42:45;99814.91;;;23.65;90.70
36788;BME280;22738;45.560;9.434;2023-04-22T07:49:26;99818.59;;;23.04;95.13
36788;BME280;22738;45.560;9.434;2023-04-22T07:56:07;99807.00;;;21.98;100.00
36788;BME280;22738;45.560;9.434;2023-04-22T08:02:48;99811.66;;;22.57;100.00
36788;BME280;22738;45.560;9.434;2023-04-22T08:09:30;99823.00;;;22.89;99.04
36788;BME280;22738;45.560;9.434;2023-04-22T08:16:11;99826.63;;;22.65;100.00
36788;BME280;22738;45.560;9.434;2023-04-22T08:22:52;99826.06;;;22.16;99.64
36788;BME280;22738;45.560;9.434;2023-04-22T08:29:37;99825.34;;;22.30;100.00
36788;BME280;22738;45.560;9.434;2023-04-22T08:36:19;99811.06;;;22.17;100.00
36788;BME280;22738;45.560;9.434;2023-04-22T08:43:02;99815.19;;;22.11;100.00
36788;BME280;22738;45.560;9.434;2023-04-22T08:49:44;99812.75;;;22.01;100.00
36788;BME280;22738;45.560;9.434;2023-04-22T08:56:25;99805.91;;;22.23;100.00
36788;BME280;22738;45.560;9.434;2023-04-22T09:03:09;99805.38;;;21.81;95.17
36788;BME280;22738;45.560;9.434;2023-04-22T09:09:51;99806.03;;;21.91;100.00
36788;BME280;22738;45.560;9.434;2023-04-22T09:16:40;99799.44;;;21.79;100.00
36788;BME280;22738;45.560;9.434;2023-04-22T09:23:23;99796.28;;;21.20;100.00
36788;BME280;22738;45.560;9.434;2023-04-22T09:30:07;99796.22;;;21.45;100.00
36788;BME280;22738;45.560;9.434;2023-04-22T09:36:49;99791.41;;;21.56;100.00
36788;BME280;22738;45.560;9.434;2023-04-22T09:43:32;99780.63;;;21.90;100.00
36788;BME280;22738;45.560;9.434;2023-04-22T09:50:13;99771.53;;;21.92;100.00
36788;BME280;22738;45.560;9.434;2023-04-22T09:56:54;99766.25;;;22.77;100.00
36788;BME280;22738;45.560;9.434;2023-04-22T10:03:36;99762.38;;;22.42;100.00
36788;BME280;22738;45.560;9.434;2023-04-22T10:10:17;99760.28;;;22.83;97.63
36788;BME280;22738;45.560;9.434;2023-04-22T10:16:59;99765.78;;;22.50;100.00
36788;BME280;22738;45.560;9.434;2023-04-22T10:23:45;99751.84;;;23.39;92.01
36788;BME280;22738;45.560;9.434;2023-04-22T10:30:29;99747.03;;;23.20;91.00
36788;BME280;22738;45.560;9.434;2023-04-22T10:37:11;99730.66;;;23.68;87.79
36788;BME280;22738;45.560;9.434;2023-04-22T10:44:07;99729.00;;;23.67;83.29
36788;BME280;22738;45.560;9.434;2023-04-22T10:50:48;99738.13;;;23.79;87.46
36788;BME280;22738;45.560;9.434;2023-04-22T10:57:37;99728.81;;;22.73;93.11
36788;BME280;22738;45.560;9.434;2023-04-22T11:04:21;99719.50;;;23.29;95.72
36788;BME280;22738;45.560;9.434;2023-04-22T11:11:09;99724.28;;;23.48;89.34
36788;BME280;22738;45.560;9.434;2023-04-22T11:17:53;99721.19;;;23.59;92.79
36788;BME280;22738;45.560;9.434;2023-04-22T11:24:34;99713.84;;;23.03;89.46
36788;BME280;22738;45.560;9.434;2023-04-22T11:31:15;99704.28;;;23.16;91.79
36788;BME280;22738;45.560;9.434;2023-04-22T11:38:03;99701.78;;;23.15;84.68
36788;BME280;22738;45.560;9.434;2023-04-22T11:44:44;99700.81;;;22.11;83.11
36788;BME280;22738;45.560;9.434;2023-04-22T11:51:25;99694.88;;;22.39;96.22
36788;BME280;22738;45.560;9.434;2023-04-22T11:58:13;99686.41;;;22.66;85.44
36788;BME280;22738;45.560;9.434;2023-04-22T12:04:57;99682.06;;;22.74;82.09
36788;BME280;22738;45.560;9.434;2023-04-22T12:11:38;99676.59;;;22.52;90.97
36788;BME280;22738;45.560;9.434;2023-04-22T12:18:33;99666.41;;;22.87;89.79
36788;BME280;22738;45.560;9.434;2023-04-22T12:25:19;99653.66;;;23.05;85.07
36788;BME280;22738;45.560;9.434;2023-04-22T12:32:00;99657.41;;;23.25;86.24
36788;BME280;22738;45.560;9.434;2023-04-22T12:38:43;99648.19;;;23.21;87.11
36788;BME280;22738;45.560;9.434;2023-04-22T12:45:24;99632.22;;;22.85;78.65
36788;BME280;22738;45.560;9.434;2023-04-22T12:52:05;99628.56;;;22.86;88.29
36788;BME280;22738;45.560;9.434;2023-04-22T12:58:46;99631.63;;;22.60;87.79
36788;BME280;22738;45.560;9.434;2023-04-22T13:05:27;99626.03;;;22.55;84.10
36788;BME280;22738;45.560;9.434;2023-04-22T13:12:08;99617.72;;;22.96;85.65
36788;BME280;22738;45.560;9.434;2023-04-22T13:18:49;99605.50;;;22.65;79.76
36788;BME280;22738;45.560;9.434;2023-04-22T13:25:30;99598.78;;;22.18;86.14
36788;BME280;22738;45.560;9.434;2023-04-22T13:32:11;99590.13;;;22.09;88.50
36788;BME280;22738;45.560;9.434;2023-04-22T13:38:52;99574.63;;;22.43;85.80
36788;BME280;22738;45.560;9.434;2023-04-22T13:45:34;99576.25;;;22.96;72.19
36788;BME280;22738;45.560;9.434;2023-04-22T13:52:15;99575.69;;;22.86;75.72
36788;BME280;22738;45.560;9.434;2023-04-22T13:58:56;99566.56;;;22.74;71.62
36788;BME280;22738;45.560;9.434;2023-04-22T14:05:37;99560.41;;;22.44;75.78
36788;BME280;22738;45.560;9.434;2023-04-22T14:12:18;99558.78;;;22.43;85.10
36788;BME280;22738;45.560;9.434;2023-04-22T14:18:59;99559.84;;;22.72;87.93
36788;BME280;22738;45.560;9.434;2023-04-22T14:25:46;99553.19;;;22.61;86.33
36788;BME280;22738;45.560;9.434;2023-04-22T14:32:28;99556.16;;;22.43;88.29
36788;BME280;22738;45.560;9.434;2023-04-22T14:39:09;99545.28;;;22.38;86.18
36788;BME280;22738;45.560;9.434;2023-04-22T14:45:50;99542.94;;;22.43;87.66
36788;BME280;22738;45.560;9.434;2023-04-22T14:52:31;99538.00;;;22.40;85.89
36788;BME280;22738;45.560;9.434;2023-04-22T14:59:13;99543.63;;;22.60;95.89
36788;BME280;22738;45.560;9.434;2023-04-22T15:05:54;99535.88;;;22.73;85.64
36788;BME280;22738;45.560;9.434;2023-04-22T15:12:35;99532.38;;;23.02;80.79
36788;BME280;22738;45.560;9.434;2023-04-22T15:19:16;99534.19;;;23.16;76.58
36788;BME280;22738;45.560;9.434;2023-04-22T15:25:57;99525.75;;;22.91;77.21
36788;BME280;22738;45.560;9.434;2023-04-22T15:32:38;99522.00;;;22.86;66.71
36788;BME280;22738;45.560;9.434;2023-04-22T15:39:20;99514.47;;;22.83;70.38
36788;BME280;22738;45.560;9.434;2023-04-22T15:46:03;99522.47;;;22.75;77.79
36788;BME280;22738;45.560;9.434;2023-04-22T15:52:44;99513.59;;;22.97;68.59
36788;BME280;22738;45.560;9.434;2023-04-22T15:59:26;99519.84;;;22.89;61.01
36788;BME280;22738;45.560;9.434;2023-04-22T16:06:07;99512.69;;;23.04;54.36
36788;BME280;22738;45.560;9.434;2023-04-22T16:12:50;99519.66;;;22.61;63.57
36788;BME280;22738;45.560;9.434;2023-04-22T16:19:31;99523.34;;;22.52;62.42
36788;BME280;22738;45.560;9.434;2023-04-22T16:26:13;99518.88;;;22.38;61.38
36788;BME280;22738;45.560;9.434;2023-04-22T16:32:54;99527.97;;;22.21;64.06
36788;BME280;22738;45.560;9.434;2023-04-22T16:39:35;99522.13;;;22.11;62.38
36788;BME280;22738;45.560;9.434;2023-04-22T16:46:17;99522.44;;;21.93;67.35
36788;BME280;22738;45.560;9.434;2023-04-22T16:52:58;99527.16;;;21.53;72.46
36788;BME280;22738;45.560;9.434;2023-04-22T16:59:39;99527.16;;;21.22;78.71
36788;BME280;22738;45.560;9.434;2023-04-22T17:06:20;99522.72;;;20.84;90.69
36788;BME280;22738;45.560;9.434;2023-04-22T17:13:01;99522.00;;;20.51;100.00
36788;BME280;22738;45.560;9.434;2023-04-22T17:19:42;99530.25;;;20.32;100.00
36788;BME280;22738;45.560;9.434;2023-04-22T17:26:24;99528.78;;;20.05;100.00
36788;BME280;22738;45.560;9.434;2023-04-22T17:33:06;99532.91;;;19.91;100.00
36788;BME280;22738;45.560;9.434;2023-04-22T17:39:47;99538.16;;;19.75;100.00
36788;BME280;22738;45.560;9.434;2023-04-22T17:46:28;99536.00;;;19.55;100.00
36788;BME280;22738;45.560;9.434;2023-04-22T17:53:10;99537.13;;;19.44;100.00
36788;BME280;22738;45.560;9.434;2023-04-22T17:59:51;99540.16;;;19.23;100.00
36788;BME280;22738;45.560;9.434;2023-04-22T18:06:32;99536.97;;;19.04;100.00
36788;BME280;22738;45.560;9.434;2023-04-22T18:13:14;99542.50;;;18.93;100.00
36788;BME280;22738;45.560;9.434;2023-04-22T18:19:55;99545.38;;;18.74;100.00
36788;BME280;22738;45.560;9.434;2023-04-22T18:26:36;99545.28;;;18.58;100.00
36788;BME280;22738;45.560;9.434;2023-04-22T18:33:18;99552.88;;;18.43;100.00
36788;BME280;22738;45.560;9.434;2023-04-22T18:39:59;99556.88;;;18.29;100.00
36788;BME280;22738;45.560;9.434;2023-04-22T18:46:40;99570.78;;;18.04;100.00
36788;BME280;22738;45.560;9.434;2023-04-22T18:53:21;99569.53;;;17.73;100.00
36788;BME280;22738;45.560;9.434;2023-04-22T19:00:04;99577.91;;;17.59;100.00
36788;BME280;22738;45.560;9.434;2023-04-22T19:06:46;99578.31;;;17.37;100.00
36788;BME280;22738;45.560;9.434;2023-04-22T19:13:27;99590.06;;;17.05;100.00
36788;BME280;22738;45.560;9.434;2023-04-22T19:20:09;99587.06;;;16.91;100.00
36788;BME280;22738;45.560;9.434;2023-04-22T19:26:50;99588.16;;;16.88;100.00
36788;BME280;22738;45.560;9.434;2023-04-22T19:33:32;99589.78;;;16.72;100.00
36788;BME280;22738;45.560;9.434;2023-04-22T19:40:13;99595.13;;;16.61;100.00
36788;BME280;22738;45.560;9.434;2023-04-22T19:46:54;99595.59;;;16.37;100.00
36788;BME280;22738;45.560;9.434;2023-04-22T19:53:36;99601.25;;;16.23;100.00
36788;BME280;22738;45.560;9.434;2023-04-22T20:00:19;99595.03;;;16.33;100.00
36788;BME280;22738;45.560;9.434;2023-04-22T20:07:00;99604.53;;;16.25;100.00
36788;BME280;22738;45.560;9.434;2023-04-22T20:13:42;99601.78;;;16.36;100.00
36788;BME280;22738;45.560;9.434;2023-04-22T20:20:24;99601.53;;;16.01;100.00
36788;BME280;22738;45.560;9.434;2023-04-22T20:27:05;99609.22;;;15.93;100.00
36788;BME280;22738;45.560;9.434;2023-04-22T20:33:48;99601.53;;;15.82;100.00
36788;BME280;22738;45.560;9.434;2023-04-22T20:40:29;99602.03;;;15.56;100.00
36788;BME280;22738;45.560;9.434;2023-04-22T20:47:11;99606.44;;;15.46;100.00
36788;BME280;22738;45.560;9.434;2023-04-22T20:53:54;99597.63;;;15.57;100.00
36788;BME280;22738;45.560;9.434;2023-04-22T21:00:35;99592.56;;;15.75;100.00
36788;BME280;22738;45.560;9.434;2023-04-22T21:07:16;99589.13;;;15.64;100.00
36788;BME280;22738;45.560;9.434;2023-04-22T21:14:00;99596.16;;;15.64;100.00
36788;BME280;22738;45.560;9.434;2023-04-22T21:20:44;99583.91;;;15.55;100.00
36788;BME280;22738;45.560;9.434;2023-04-22T21:27:27;99591.31;;;15.59;100.00
36788;BME280;22738;45.560;9.434;2023-04-22T21:34:08;99587.34;;;15.55;100.00
36788;BME280;22738;45.560;9.434;2023-04-22T21:40:49;99588.84;;;15.67;100.00
36788;BME280;22738;45.560;9.434;2023-04-22T21:47:30;99593.69;;;15.62;100.00
36788;BME280;22738;45.560;9.434;2023-04-22T21:54:11;99584.34;;;15.69;100.00
36788;BME280;22738;45.560;9.434;2023-04-22T22:00:53;99593.00;;;15.80;100.00
36788;BME280;22738;45.560;9.434;2023-04-22T22:07:36;99596.59;;;15.79;100.00
36788;BME280;22738;45.560;9.434;2023-04-22T22:14:18;99590.25;;;15.72;100.00
36788;BME280;22738;45.560;9.434;2023-04-22T22:20:59;99582.81;;;15.67;100.00
36788;BME280;22738;45.560;9.434;2023-04-22T22:27:40;99581.16;;;15.66;100.00
36788;BME280;22738;45.560;9.434;2023-04-22T22:34:25;99575.66;;;15.59;100.00
36788;BME280;22738;45.560;9.434;2023-04-22T22:41:06;99575.91;;;15.56;100.00
36788;BME280;22738;45.560;9.434;2023-04-22T22:47:47;99579.06;;;15.50;100.00
36788;BME280;22738;45.560;9.434;2023-04-22T22:54:29;99581.94;;;15.47;100.00
36788;BME280;22738;45.560;9.434;2023-04-22T23:01:11;99586.03;;;15.40;100.00
36788;BME280;22738;45.560;9.434;2023-04-22T23:07:52;99580.78;;;15.31;100.00
36788;BME280;22738;45.560;9.434;2023-04-22T23:14:33;99576.38;;;15.22;100.00
36788;BME280;22738;45.560;9.434;2023-04-22T23:21:17;99579.47;;;15.06;100.00
36788;BME280;22738;45.560;9.434;2023-04-22T23:27:59;99569.13;;;14.95;100.00
36788;BME280;22738;45.560;9.434;2023-04-22T23:34:44;99554.94;;;14.88;100.00
36788;BME280;22738;45.560;9.434;2023-04-22T23:41:25;99555.56;;;14.71;100.00
36788;BME280;22738;45.560;9.434;2023-04-22T23:48:06;99548.69;;;14.70;100.00
36788;BME280;22738;45.560;9.434;2023-04-22T23:54:51;99548.13;;;14.66;100.00
